Time;durP1;ratioP1;P1;durP2;ratioP2;P2;SDS_P1;SDS_P2;PMS_P1;PMS_P2;Temp;Humidity;BMP_temperature;BMP_pressure;BME280_temperature;BME280_humidity;BME280_pressure;Samples;Min_cycle;Max_cycle;Signal;HPM_P1;HPM_P2
2022/11/05 00:09:36;;;;;;;;;;;;;;;15.49;72.56;101144.28;1278483;23;653;-75
2022/11/05 00:10:26;;;;;;;;;;;;;;;15.48;72.78;101147.94;1278453;23;816;-75
2022/11/05 00:11:17;;;;;;;;;;;;;;;15.45;72.83;101144.63;1278450;23;720;-74
2022/11/05 00:16:43;;;;;;;;;;;;;;;15.44;72.78;101156.34;1278411;23;662;-75
2022/11/05 00:17:34;;;;;;;;;;;;;;;15.43;73.29;101163.56;1278556;23;649;-75
2022/11/05 00:18:24;;;;;;;;;;;;;;;15.40;73.02;101171.03;1278423;23;600;-74
2022/11/05 00:19:15;;;;;;;;;;;;;;;15.42;72.92;101163.69;1278408;23;653;-75
2022/11/05 00:20:06;;;;;;;;;;;;;;;15.44;72.63;101161.72;1278414;23;657;-74
2022/11/05 00:20:56;;;;;;;;;;;;;;;15.43;73.04;101155.50;1278427;23;609;-74
2022/11/05 00:25:17;;;;;;;;;;;;;;;15.44;72.90;101167.97;1285654;22;970;-75
2022/11/05 00:26:08;;;;;;;;;;;;;;;15.43;73.16;101165.38;1297744;22;653;-75
2022/11/05 00:26:58;;;;;;;;;;;;;;;15.39;72.91;101169.31;1297754;22;1872;-75
2022/11/05 00:27:49;;;;;;;;;;;;;;;15.40;72.87;101166.53;1297382;22;581;-75
2022/11/05 00:28:40;;;;;;;;;;;;;;;15.44;72.94;101167.09;1297736;22;645;-75
2022/11/05 00:29:30;;;;;;;;;;;;;;;15.42;72.95;101169.91;1297844;22;692;-75
2022/11/05 00:30:21;;;;;;;;;;;;;;;15.40;73.19;101168.34;1297602;22;602;-76
2022/11/05 00:31:11;;;;;;;;;;;;;;;15.42;73.04;101175.28;1297911;22;609;-75
2022/11/05 00:32:02;;;;;;;;;;;;;;;15.42;72.87;101169.06;1297962;22;644;-76
2022/11/05 00:32:52;;;;;;;;;;;;;;;15.41;72.85;101173.56;1297784;22;799;-75
2022/11/05 00:33:43;;;;;;;;;;;;;;;15.43;72.98;101170.75;1297948;22;625;-74
2022/11/05 00:34:33;;;;;;;;;;;;;;;15.43;72.94;101171.63;1297708;22;640;-74
2022/11/05 00:35:23;;;;;;;;;;;;;;;15.42;72.91;101175.28;1297923;22;672;-75
2022/11/05 00:36:14;;;;;;;;;;;;;;;15.44;72.85;101177.84;1297738;22;625;-74
2022/11/05 00:37:04;;;;;;;;;;;;;;;15.40;73.03;101177.25;1297888;22;652;-74
2022/11/05 00:37:55;;;;;;;;;;;;;;;15.41;73.14;101176.25;1297957;22;625;-75
2022/11/05 00:38:45;;;;;;;;;;;;;;;15.38;72.26;101164.94;1297858;22;625;-74
2022/11/05 00:39:36;;;;;;;;;;;;;;;15.41;73.13;101172.72;1297915;22;704;-74
2022/11/05 00:40:26;;;;;;;;;;;;;;;15.43;73.21;101181.50;1297807;22;657;-74
2022/11/05 00:41:16;;;;;;;;;;;;;;;15.43;72.93;101177.00;1297833;22;684;-74
2022/11/05 00:45:36;;;;;;;;;;;;;;;15.37;73.07;101187.38;1296113;22;696;-75
2022/11/05 00:46:26;;;;;;;;;;;;;;;15.36;72.92;101186.53;1297910;22;645;-75
2022/11/05 00:49:35;;;;;;;;;;;;;;;15.40;73.05;101188.00;1295024;22;735;-75
2022/11/05 00:50:25;;;;;;;;;;;;;;;15.38;73.07;101194.47;1297714;22;656;-76
2022/11/05 00:51:16;;;;;;;;;;;;;;;15.38;72.99;101195.31;1297538;22;1086;-76
2022/11/05 00:53:15;;;;;;;;;;;;;;;15.35;73.02;101189.34;1296286;22;661;-75
2022/11/05 00:54:06;;;;;;;;;;;;;;;15.36;73.04;101199.09;1297608;22;786;-75
2022/11/05 00:54:56;;;;;;;;;;;;;;;15.38;72.76;101195.31;1297823;22;637;-75
2022/11/05 00:55:47;;;;;;;;;;;;;;;15.36;72.96;101199.97;1297880;22;672;-75
2022/11/05 00:56:37;;;;;;;;;;;;;;;15.37;73.37;101192.75;1297740;22;605;-75
2022/11/05 00:57:28;;;;;;;;;;;;;;;15.39;72.89;101194.34;1297882;22;669;-75
2022/11/05 00:58:18;;;;;;;;;;;;;;;15.40;72.95;101197.91;1297856;22;621;-75
2022/11/05 00:59:08;;;;;;;;;;;;;;;15.39;72.91;101197.03;1297862;22;629;-75
2022/11/05 00:59:59;;;;;;;;;;;;;;;15.39;72.89;101196.19;1297532;22;641;-75
2022/11/05 01:00:49;;;;;;;;;;;;;;;15.36;72.94;101194.59;1297746;22;641;-75
2022/11/05 01:01:40;;;;;;;;;;;;;;;15.37;73.20;101192.75;1297904;22;664;-75
2022/11/05 01:02:30;;;;;;;;;;;;;;;15.42;73.00;101202.13;1297812;22;617;-76
2022/11/05 01:03:21;;;;;;;;;;;;;;;15.42;72.96;101198.59;1297721;22;664;-75
2022/11/05 01:04:11;;;;;;;;;;;;;;;15.39;72.99;101196.19;1297617;22;597;-75
2022/11/05 01:05:01;;;;;;;;;;;;;;;15.39;73.11;101206.91;1297674;22;640;-75
2022/11/05 01:05:52;;;;;;;;;;;;;;;15.38;73.04;101210.59;1297924;22;612;-75
2022/11/05 01:06:42;;;;;;;;;;;;;;;15.38;73.17;101211.44;1297541;22;1900;-75
2022/11/05 01:07:33;;;;;;;;;;;;;;;15.36;73.40;101208.00;1297851;22;664;-75
2022/11/05 01:08:23;;;;;;;;;;;;;;;15.36;73.30;101217.91;1297629;22;643;-75
2022/11/05 01:09:14;;;;;;;;;;;;;;;15.32;73.54;101211.06;1297757;22;639;-75
2022/11/05 01:10:04;;;;;;;;;;;;;;;15.33;73.41;101210.94;1297594;22;706;-75
2022/11/05 01:10:54;;;;;;;;;;;;;;;15.38;73.34;101213.28;1297820;22;658;-75
2022/11/05 01:11:45;;;;;;;;;;;;;;;15.38;73.50;101219.50;1297291;22;637;-75
2022/11/05 01:12:35;;;;;;;;;;;;;;;15.40;73.38;101217.53;1297677;22;633;-75
2022/11/05 01:13:26;;;;;;;;;;;;;;;15.39;73.39;101215.84;1297787;22;629;-75
2022/11/05 01:14:16;;;;;;;;;;;;;;;15.39;73.22;101214.97;1297563;22;625;-75
2022/11/05 01:15:07;;;;;;;;;;;;;;;15.35;73.58;101210.81;1295315;22;574;-75
2022/11/05 01:15:57;;;;;;;;;;;;;;;15.41;73.11;101211.16;1297782;22;597;-75
2022/11/05 01:16:48;;;;;;;;;;;;;;;15.36;73.41;101217.91;1297797;22;695;-75
2022/11/05 01:17:38;;;;;;;;;;;;;;;15.40;73.42;101216.69;1297623;22;822;-75
2022/11/05 01:18:28;;;;;;;;;;;;;;;15.40;73.53;101216.69;1297751;22;641;-75
2022/11/05 01:19:19;;;;;;;;;;;;;;;15.36;73.44;101213.38;1297852;22;640;-75
2022/11/05 01:20:09;;;;;;;;;;;;;;;15.36;72.91;101210.69;1297755;22;648;-75
2022/11/05 01:21:00;;;;;;;;;;;;;;;15.37;73.37;101220.47;1297878;22;640;-75
2022/11/05 01:21:50;;;;;;;;;;;;;;;15.37;73.32;101217.78;1297713;22;672;-75
2022/11/05 01:22:41;;;;;;;;;;;;;;;15.38;73.35;101215.94;1297751;22;644;-76
2022/11/05 01:23:31;;;;;;;;;;;;;;;15.37;73.43;101219.63;1298692;22;652;-75
2022/11/05 01:24:21;;;;;;;;;;;;;;;15.39;73.34;101223.03;1297712;22;653;-75
2022/11/05 01:25:12;;;;;;;;;;;;;;;15.39;73.55;101213.16;1297847;22;734;-75
2022/11/05 01:26:02;;;;;;;;;;;;;;;15.38;73.22;101214.13;1297087;22;625;-75
2022/11/05 01:26:53;;;;;;;;;;;;;;;15.36;73.26;101216.06;1297631;22;1915;-75
2022/11/05 01:27:43;;;;;;;;;;;;;;;15.39;73.42;101223.88;1297748;22;699;-75
2022/11/05 01:28:33;;;;;;;;;;;;;;;15.34;73.26;101214.47;1297667;22;540;-76
2022/11/05 01:29:24;;;;;;;;;;;;;;;15.37;73.36;101222.31;1297785;22;648;-75
2022/11/05 01:30:14;;;;;;;;;;;;;;;15.34;73.51;101225.22;1297563;22;603;-75
2022/11/05 01:31:05;;;;;;;;;;;;;;;15.32;73.43;101221.78;1297728;22;648;-75
2022/11/05 01:31:55;;;;;;;;;;;;;;;15.32;73.45;101216.44;1297662;22;628;-75
2022/11/05 01:32:46;;;;;;;;;;;;;;;15.33;73.13;101227.06;1297772;22;637;-75
2022/11/05 01:33:36;;;;;;;;;;;;;;;15.34;73.38;101225.22;1297753;22;613;-75
2022/11/05 01:34:27;;;;;;;;;;;;;;;15.38;73.11;101226.69;1297691;22;649;-75
2022/11/05 01:35:17;;;;;;;;;;;;;;;15.38;73.27;101222.19;1297547;22;664;-75
2022/11/05 01:36:07;;;;;;;;;;;;;;;15.37;73.04;101217.78;1297215;22;668;-75
2022/11/05 01:36:58;;;;;;;;;;;;;;;15.37;73.14;101233.91;1296729;22;652;-75
2022/11/05 01:37:48;;;;;;;;;;;;;;;15.37;73.18;101222.31;1296810;22;601;-75
2022/11/05 01:38:39;;;;;;;;;;;;;;;15.37;73.33;101215.09;1297866;22;632;-73
2022/11/05 01:39:29;;;;;;;;;;;;;;;15.37;73.21;101224.97;1297681;22;755;-76
2022/11/05 01:40:19;;;;;;;;;;;;;;;15.38;73.27;101218.63;1297090;22;625;-76
2022/11/05 01:41:10;;;;;;;;;;;;;;;15.35;73.38;101213.50;1297749;22;653;-75
2022/11/05 01:42:00;;;;;;;;;;;;;;;15.35;73.31;101217.03;1297804;22;648;-75
2022/11/05 01:42:51;;;;;;;;;;;;;;;15.35;73.43;101213.50;1297799;22;680;-75
2022/11/05 01:43:41;;;;;;;;;;;;;;;15.34;73.41;101214.47;1297670;22;656;-75
2022/11/05 01:44:32;;;;;;;;;;;;;;;15.31;73.42;101215.56;1297771;22;680;-75
2022/11/05 01:45:22;;;;;;;;;;;;;;;15.35;73.63;101217.03;1297646;22;641;-75
2022/11/05 01:46:13;;;;;;;;;;;;;;;15.28;73.63;101208.59;1297798;22;621;-75
2022/11/05 01:47:03;;;;;;;;;;;;;;;15.34;73.60;101212.66;1297436;22;1920;-75
2022/11/05 01:47:55;;;;;;;;;;;;;;;15.34;73.45;101209.09;1297611;22;656;-75
2022/11/05 01:48:45;;;;;;;;;;;;;;;15.36;73.39;101207.16;1298577;22;683;-75
2022/11/05 01:49:35;;;;;;;;;;;;;;;15.35;73.36;101206.31;1297622;22;644;-75
2022/11/05 01:50:26;;;;;;;;;;;;;;;15.34;73.55;101209.97;1297855;22;629;-73
2022/11/05 01:51:17;;;;;;;;;;;;;;;15.33;73.17;101202.88;1298358;22;1321;-73
2022/11/05 01:52:07;;;;;;;;;;;;;;;15.29;73.85;101204.94;1297524;22;638;-76
2022/11/05 01:52:57;;;;;;;;;;;;;;;15.30;73.70;101208.50;1296613;22;645;-75
2022/11/05 01:53:48;;;;;;;;;;;;;;;15.27;73.45;101208.72;1297396;22;633;-75
2022/11/05 01:54:38;;;;;;;;;;;;;;;15.27;73.61;101204.22;1297198;22;636;-75
2022/11/05 01:55:29;;;;;;;;;;;;;;;15.31;73.59;101210.19;1297333;22;633;-76
2022/11/05 01:56:19;;;;;;;;;;;;;;;15.34;73.31;101207.28;1297582;22;609;-75
2022/11/05 01:57:10;;;;;;;;;;;;;;;15.33;73.33;101208.25;1297146;22;605;-75
2022/11/05 01:58:00;;;;;;;;;;;;;;;15.36;73.29;101199.97;1297338;22;618;-75
2022/11/05 01:58:50;;;;;;;;;;;;;;;15.33;73.23;101202.88;1297117;22;648;-75
2022/11/05 01:59:42;;;;;;;;;;;;;;;15.31;73.22;101196.78;1297368;22;628;-75
2022/11/05 02:00:32;;;;;;;;;;;;;;;15.33;73.27;101200.19;1297486;22;617;-75
2022/11/05 02:01:22;;;;;;;;;;;;;;;15.33;73.44;101189.47;1297611;22;604;-75
2022/11/05 02:02:13;;;;;;;;;;;;;;;15.29;73.29;101196.91;1297653;22;680;-75
2022/11/05 02:03:03;;;;;;;;;;;;;;;15.31;73.63;101194.09;1297599;22;640;-75
2022/11/05 02:03:54;;;;;;;;;;;;;;;15.32;73.33;101193.13;1297795;22;676;-76
2022/11/05 02:04:44;;;;;;;;;;;;;;;15.32;73.27;101193.13;1297624;22;664;-74
2022/11/05 02:05:35;;;;;;;;;;;;;;;15.29;73.50;101196.91;1297678;22;645;-76
2022/11/05 02:06:25;;;;;;;;;;;;;;;15.29;73.42;101190.66;1297503;22;617;-75
2022/11/05 02:07:16;;;;;;;;;;;;;;;15.29;73.48;101193.34;1297632;22;660;-75
2022/11/05 02:08:06;;;;;;;;;;;;;;;15.27;73.42;101193.47;1297545;22;640;-75
2022/11/05 02:08:57;;;;;;;;;;;;;;;15.24;73.56;101195.53;1297580;22;657;-74
2022/11/05 02:09:47;;;;;;;;;;;;;;;15.26;73.53;101199.81;1297498;22;590;-75
2022/11/05 02:10:37;;;;;;;;;;;;;;;15.28;73.52;101205.94;1297567;22;645;-75
2022/11/05 02:11:28;;;;;;;;;;;;;;;15.31;73.00;101199.47;1297790;22;649;-75
2022/11/05 02:12:18;;;;;;;;;;;;;;;15.31;73.57;101202.16;1297641;22;613;-75
2022/11/05 02:13:09;;;;;;;;;;;;;;;15.28;73.44;101203.25;1297674;22;632;-75
2022/11/05 02:13:59;;;;;;;;;;;;;;;15.26;73.79;101207.00;1297579;22;742;-75
2022/11/05 02:14:50;;;;;;;;;;;;;;;15.27;73.40;101203.34;1297357;22;656;-75
2022/11/05 02:15:40;;;;;;;;;;;;;;;15.29;73.43;101199.56;1297369;22;645;-75
2022/11/05 02:16:30;;;;;;;;;;;;;;;15.30;73.19;101203.13;1296267;22;637;-75
2022/11/05 02:17:21;;;;;;;;;;;;;;;15.28;73.51;101195.19;1296963;22;641;-75
2022/11/05 02:18:11;;;;;;;;;;;;;;;15.28;73.73;101192.50;1297556;22;621;-75
2022/11/05 02:19:02;;;;;;;;;;;;;;;15.27;74.19;101195.31;1297601;22;851;-75
2022/11/05 02:19:52;;;;;;;;;;;;;;;15.28;73.52;101194.31;1297525;22;695;-75
2022/11/05 02:20:42;;;;;;;;;;;;;;;15.31;73.38;101204.84;1297671;22;597;-75
2022/11/05 02:21:33;;;;;;;;;;;;;;;15.28;73.34;101203.25;1297688;22;610;-75
2022/11/05 02:22:23;;;;;;;;;;;;;;;15.30;73.33;101203.13;1297474;22;672;-75
2022/11/05 02:23:14;;;;;;;;;;;;;;;15.33;73.27;101202.88;1297573;22;640;-74
2022/11/05 02:24:04;;;;;;;;;;;;;;;15.31;73.43;101204.84;1296880;22;610;-75
2022/11/05 02:24:55;;;;;;;;;;;;;;;15.29;73.43;101196.91;1297534;22;648;-75
2022/11/05 02:25:45;;;;;;;;;;;;;;;15.29;73.17;101198.72;1297858;22;668;-74
2022/11/05 02:26:35;;;;;;;;;;;;;;;15.31;73.51;101195.91;1297632;22;652;-74
2022/11/05 02:27:26;;;;;;;;;;;;;;;15.29;73.58;101193.34;1297795;22;649;-74
2022/11/05 02:28:16;;;;;;;;;;;;;;;15.25;73.46;101192.72;1297562;22;598;-74
2022/11/05 02:29:07;;;;;;;;;;;;;;;15.27;73.51;101192.63;1297609;22;842;-74
2022/11/05 02:29:57;;;;;;;;;;;;;;;15.29;73.26;101190.66;1298588;22;696;-74
2022/11/05 02:30:47;;;;;;;;;;;;;;;15.27;73.32;101192.63;1297519;22;660;-74
2022/11/05 02:31:38;;;;;;;;;;;;;;;15.23;73.64;101194.69;1297728;22;633;-74
2022/11/05 02:32:28;;;;;;;;;;;;;;;15.25;73.76;101194.56;1297590;22;673;-74
2022/11/05 02:33:19;;;;;;;;;;;;;;;15.23;73.71;101200.06;1297599;22;629;-74
2022/11/05 02:34:09;;;;;;;;;;;;;;;15.29;73.31;101196.03;1297449;22;609;-74
2022/11/05 02:35:00;;;;;;;;;;;;;;;15.26;73.26;101196.28;1297653;22;613;-75
2022/11/05 02:35:50;;;;;;;;;;;;;;;15.24;73.65;101193.72;1297611;22;622;-75
2022/11/05 02:36:40;;;;;;;;;;;;;;;15.24;73.49;101199.06;1297596;22;637;-74
2022/11/05 02:37:31;;;;;;;;;;;;;;;15.24;73.45;101206.28;1297670;22;635;-75
2022/11/05 02:38:21;;;;;;;;;;;;;;;15.24;73.74;101200.91;1296902;22;605;-75
2022/11/05 02:39:12;;;;;;;;;;;;;;;15.28;73.44;101207.75;1297578;22;621;-75
2022/11/05 02:40:02;;;;;;;;;;;;;;;15.27;73.26;101206.03;1297373;22;628;-75
2022/11/05 02:40:53;;;;;;;;;;;;;;;15.26;73.68;101198.97;1297578;22;516;-75
2022/11/05 02:41:43;;;;;;;;;;;;;;;15.27;73.04;101201.53;1297728;22;659;-75
2022/11/05 02:42:33;;;;;;;;;;;;;;;15.26;73.46;101201.66;1297566;22;668;-75
2022/11/05 02:43:24;;;;;;;;;;;;;;;15.25;73.40;101197.25;1297667;22;601;-75
2022/11/05 02:44:14;;;;;;;;;;;;;;;15.27;72.95;101203.34;1297462;22;614;-75
2022/11/05 02:45:05;;;;;;;;;;;;;;;15.26;73.63;101201.66;1297558;22;637;-75
2022/11/05 02:45:56;;;;;;;;;;;;;;;15.24;73.32;101203.59;1297387;22;605;-75
2022/11/05 02:46:46;;;;;;;;;;;;;;;15.24;73.19;101203.59;1296830;22;1884;-75
2022/11/05 02:47:37;;;;;;;;;;;;;;;15.22;73.51;101194.84;1297713;22;677;-75
2022/11/05 02:48:27;;;;;;;;;;;;;;;15.19;73.60;101201.28;1297717;22;609;-75
2022/11/05 02:49:17;;;;;;;;;;;;;;;15.20;73.76;101196.78;1297469;22;641;-75
2022/11/05 02:50:08;;;;;;;;;;;;;;;15.16;73.63;101195.31;1297508;22;626;-75
2022/11/05 02:50:59;;;;;;;;;;;;;;;15.18;73.34;101193.34;1297230;22;1396;-75
2022/11/05 02:51:49;;;;;;;;;;;;;;;15.19;73.53;101200.44;1297708;22;640;-75
2022/11/05 02:52:39;;;;;;;;;;;;;;;15.23;73.26;101191.13;1297536;22;657;-75
2022/11/05 02:53:30;;;;;;;;;;;;;;;15.20;73.59;101191.41;1297660;22;613;-75
2022/11/05 02:54:20;;;;;;;;;;;;;;;15.13;73.67;101185.66;1297360;22;656;-75
2022/11/05 02:55:11;;;;;;;;;;;;;;;15.16;73.55;101196.16;1297498;22;613;-74
2022/11/05 02:56:01;;;;;;;;;;;;;;;15.19;73.55;101184.31;1297718;22;597;-74
2022/11/05 02:56:51;;;;;;;;;;;;;;;15.18;73.50;101194.22;1297656;22;629;-74
2022/11/05 02:57:42;;;;;;;;;;;;;;;15.19;73.68;101195.06;1297678;22;629;-74
2022/11/05 02:58:32;;;;;;;;;;;;;;;15.15;73.60;101198.97;1297423;22;613;-74
2022/11/05 02:59:23;;;;;;;;;;;;;;;15.16;73.34;101201.53;1297446;22;653;-74
2022/11/05 03:00:13;;;;;;;;;;;;;;;15.17;73.78;101199.69;1297310;22;682;-74
2022/11/05 03:01:05;;;;;;;;;;;;;;;15.19;73.38;101197.75;1296380;22;636;-74
2022/11/05 03:01:56;;;;;;;;;;;;;;;15.23;73.41;101196.50;1296716;22;683;-74
2022/11/05 03:02:46;;;;;;;;;;;;;;;15.23;72.99;101196.50;1297458;22;619;-74
2022/11/05 03:03:37;;;;;;;;;;;;;;;15.22;73.19;101201.06;1297508;22;620;-74
2022/11/05 03:04:27;;;;;;;;;;;;;;;15.23;73.21;101199.19;1297763;22;672;-74
2022/11/05 03:05:17;;;;;;;;;;;;;;;15.21;73.32;101199.34;1297539;22;869;-74
2022/11/05 03:06:08;;;;;;;;;;;;;;;15.22;73.59;101200.19;1297632;22;714;-75
2022/11/05 03:06:58;;;;;;;;;;;;;;;15.24;73.41;101192.84;1297371;22;1897;-75
2022/11/05 03:07:49;;;;;;;;;;;;;;;15.22;73.25;101197.53;1297517;22;604;-75
2022/11/05 03:08:39;;;;;;;;;;;;;;;15.23;73.48;101200.06;1297424;22;612;-75
2022/11/05 03:09:29;;;;;;;;;;;;;;;15.17;73.35;101192.50;1297507;22;644;-75
2022/11/05 03:10:20;;;;;;;;;;;;;;;15.23;73.28;101193.81;1297716;22;620;-76
2022/11/05 03:11:10;;;;;;;;;;;;;;;15.18;73.63;101193.34;1297398;22;648;-75
2022/11/05 03:12:01;;;;;;;;;;;;;;;15.17;73.61;101192.50;1297549;22;660;-75
2022/11/05 03:12:51;;;;;;;;;;;;;;;15.19;73.10;101197.75;1297444;22;653;-75
2022/11/05 03:13:42;;;;;;;;;;;;;;;15.18;73.08;101198.72;1297676;22;636;-75
2022/11/05 03:14:32;;;;;;;;;;;;;;;15.17;73.21;101192.50;1297646;22;628;-75
2022/11/05 03:15:22;;;;;;;;;;;;;;;15.13;73.61;101188.34;1297465;22;633;-75
2022/11/05 03:16:13;;;;;;;;;;;;;;;15.15;73.48;101188.22;1297617;22;659;-75
2022/11/05 03:17:03;;;;;;;;;;;;;;;15.16;73.45;101190.78;1297436;22;609;-75
2022/11/05 03:17:54;;;;;;;;;;;;;;;15.12;73.46;101194.69;1297605;22;641;-74
2022/11/05 03:18:44;;;;;;;;;;;;;;;15.14;73.79;101194.56;1297657;22;661;-75
2022/11/05 03:19:35;;;;;;;;;;;;;;;15.14;73.35;101190.06;1297591;22;636;-75
2022/11/05 03:20:25;;;;;;;;;;;;;;;15.15;73.38;101185.53;1297418;22;695;-75
2022/11/05 03:21:16;;;;;;;;;;;;;;;15.12;73.54;101185.78;1297545;22;619;-75
2022/11/05 03:22:06;;;;;;;;;;;;;;;15.11;73.43;101187.59;1297082;22;601;-75
2022/11/05 03:22:57;;;;;;;;;;;;;;;15.12;73.38;101193.81;1297648;22;597;-75
2022/11/05 03:23:47;;;;;;;;;;;;;;;15.12;73.33;101189.31;1297609;22;629;-75
2022/11/05 03:24:37;;;;;;;;;;;;;;;15.12;73.23;101188.47;1297474;22;629;-76
2022/11/05 03:25:28;;;;;;;;;;;;;;;15.14;73.28;101190.06;1297559;22;684;-75
2022/11/05 03:26:18;;;;;;;;;;;;;;;15.12;73.37;101188.47;1297517;22;637;-77
2022/11/05 03:27:09;;;;;;;;;;;;;;;15.12;73.32;101200.06;1297370;22;1914;-77
2022/11/05 03:27:59;;;;;;;;;;;;;;;15.12;73.26;101196.50;1297572;22;644;-75
2022/11/05 03:28:49;;;;;;;;;;;;;;;15.11;73.35;101202.84;1297123;22;648;-75
2022/11/05 03:29:40;;;;;;;;;;;;;;;15.11;73.09;101214.44;1296539;22;637;-75
2022/11/05 03:30:30;;;;;;;;;;;;;;;15.08;73.13;101211.13;1296495;22;617;-75
2022/11/05 03:31:21;;;;;;;;;;;;;;;15.08;73.51;101206.63;1297556;22;617;-75
2022/11/05 03:32:11;;;;;;;;;;;;;;;15.09;73.50;101210.16;1297502;22;798;-75
2022/11/05 03:33:01;;;;;;;;;;;;;;;15.00;73.60;101211.75;1297404;22;597;-75
2022/11/05 03:33:52;;;;;;;;;;;;;;;15.04;73.61;101215.06;1297504;22;644;-75
2022/11/05 03:34:42;;;;;;;;;;;;;;;15.01;73.38;101213.47;1297642;22;620;-75
2022/11/05 03:35:33;;;;;;;;;;;;;;;14.96;70.77;101202.22;1297495;22;648;-74
2022/11/05 03:36:23;;;;;;;;;;;;;;;15.04;73.43;101196.28;1296747;22;648;-75
2022/11/05 03:37:14;;;;;;;;;;;;;;;15.01;73.71;101200.03;1297374;22;656;-75
2022/11/05 03:38:04;;;;;;;;;;;;;;;15.07;73.20;101196.00;1297473;22;637;-75
2022/11/05 03:38:54;;;;;;;;;;;;;;;15.08;73.28;101195.88;1297410;22;657;-75
2022/11/05 03:39:45;;;;;;;;;;;;;;;15.10;73.37;101195.78;1297550;22;644;-75
2022/11/05 03:40:35;;;;;;;;;;;;;;;15.11;73.34;101195.66;1297362;22;711;-75
2022/11/05 03:41:26;;;;;;;;;;;;;;;15.09;73.57;101194.06;1297526;22;601;-74
2022/11/05 03:42:16;;;;;;;;;;;;;;;15.09;73.41;101194.06;1297449;22;629;-74
2022/11/05 03:43:07;;;;;;;;;;;;;;;15.10;73.40;101201.13;1297078;22;653;-74
2022/11/05 03:43:57;;;;;;;;;;;;;;;15.10;73.25;101190.41;1296444;22;676;-74
2022/11/05 03:44:47;;;;;;;;;;;;;;;15.13;72.92;101195.53;1296545;22;656;-75
2022/11/05 03:45:38;;;;;;;;;;;;;;;15.08;73.12;101195.03;1297379;22;667;-74
2022/11/05 03:46:28;;;;;;;;;;;;;;;15.10;73.35;101193.09;1297372;22;731;-74
2022/11/05 03:47:19;;;;;;;;;;;;;;;15.10;73.07;101195.78;1297490;22;617;-74
2022/11/05 03:48:09;;;;;;;;;;;;;;;15.09;73.41;101192.22;1297646;22;628;-74
2022/11/05 03:49:00;;;;;;;;;;;;;;;15.07;73.37;101191.50;1297191;22;649;-74
2022/11/05 03:49:50;;;;;;;;;;;;;;;15.08;73.20;101198.56;1296576;22;660;-74
2022/11/05 03:50:40;;;;;;;;;;;;;;;15.10;73.19;101196.63;1296582;22;625;-74
2022/11/05 03:51:32;;;;;;;;;;;;;;;15.11;73.48;101197.47;1297538;22;673;-74
2022/11/05 03:52:22;;;;;;;;;;;;;;;15.08;73.03;101192.34;1297391;22;644;-75
2022/11/05 03:53:13;;;;;;;;;;;;;;;15.07;73.62;101199.53;1297464;22;661;-75
2022/11/05 03:54:03;;;;;;;;;;;;;;;15.08;73.33;101201.25;1297494;22;656;-75
2022/11/05 03:54:54;;;;;;;;;;;;;;;15.07;73.25;101206.75;1297399;22;684;-75
2022/11/05 03:55:44;;;;;;;;;;;;;;;15.02;73.35;101203.59;1297552;22;677;-75
2022/11/05 03:56:34;;;;;;;;;;;;;;;15.04;73.60;101205.19;1297416;22;637;-75
2022/11/05 03:57:25;;;;;;;;;;;;;;;15.02;73.70;101204.44;1297585;22;631;-75
2022/11/05 03:58:15;;;;;;;;;;;;;;;15.05;73.63;101198.81;1297433;22;664;-75
2022/11/05 03:59:06;;;;;;;;;;;;;;;15.03;73.20;101206.16;1297345;22;841;-75
2022/11/05 03:59:56;;;;;;;;;;;;;;;15.08;73.42;101203.09;1297579;22;625;-75
2022/11/05 04:00:47;;;;;;;;;;;;;;;15.08;73.17;101203.94;1297379;22;605;-75
2022/11/05 04:01:37;;;;;;;;;;;;;;;15.10;73.05;101201.13;1297572;22;628;-75
2022/11/05 04:02:28;;;;;;;;;;;;;;;15.10;72.98;101206.50;1297388;22;645;-75
2022/11/05 04:03:19;;;;;;;;;;;;;;;15.10;73.35;101193.94;1297428;22;605;-74
2022/11/05 04:04:09;;;;;;;;;;;;;;;15.14;73.25;101202.63;1297404;22;605;-74
2022/11/05 04:05:00;;;;;;;;;;;;;;;15.08;73.45;101205.78;1297608;22;610;-74
2022/11/05 04:13:22;;;;;;;;;;;;;;;15.08;72.95;101203.09;1297543;22;621;-74
2022/11/05 04:13:55;;;;;;;;;;;;;;;15.08;73.12;101208.47;1295489;22;616;-74
2022/11/05 04:14:46;;;;;;;;;;;;;;;15.00;73.16;101205.53;1297448;22;625;-75
2022/11/05 04:17:57;;;;;;;;;;;;;;;15.00;73.22;101211.75;1295553;22;641;-74
2022/11/05 04:18:48;;;;;;;;;;;;;;;15.08;73.36;101214.69;1297330;22;657;-74
2022/11/05 04:24:15;;;;;;;;;;;;;;;15.05;73.01;101224.81;1295773;22;700;-75
2022/11/05 04:25:05;;;;;;;;;;;;;;;15.05;72.98;101225.66;1298291;22;723;-75
2022/11/05 04:25:56;;;;;;;;;;;;;;;15.06;73.30;101226.50;1297393;22;621;-75
2022/11/05 04:26:46;;;;;;;;;;;;;;;15.04;73.17;101217.75;1297616;22;665;-75
2022/11/05 04:27:37;;;;;;;;;;;;;;;14.97;73.36;101227.22;1297506;22;582;-75
2022/11/05 04:30:17;;;;;;;;;;;;;;;15.02;73.11;101228.59;1297598;22;668;-74
2022/11/05 04:30:23;;;;;;;;;;;;;;;15.03;73.14;101232.13;1296497;22;672;-74
2022/11/05 04:30:48;;;;;;;;;;;;;;;15.05;73.53;101219.47;1295974;22;1419;-74
2022/11/05 04:31:39;;;;;;;;;;;;;;;15.05;72.89;101224.81;1297382;22;608;-74
2022/11/05 04:32:29;;;;;;;;;;;;;;;15.06;72.34;101223.81;1297564;22;660;-74
2022/11/05 04:33:19;;;;;;;;;;;;;;;15.04;73.12;101221.28;1297422;22;641;-74
2022/11/05 04:34:10;;;;;;;;;;;;;;;15.05;73.20;101222.16;1297537;22;663;-74
2022/11/05 04:35:00;;;;;;;;;;;;;;;15.05;73.53;101224.81;1297536;22;727;-75
2022/11/05 04:35:51;;;;;;;;;;;;;;;15.07;73.31;101222.84;1297438;22;621;-75
2022/11/05 04:36:41;;;;;;;;;;;;;;;15.03;73.11;101232.13;1297542;22;669;-75
2022/11/05 04:37:32;;;;;;;;;;;;;;;15.01;73.60;101226.03;1297420;22;641;-74
2022/11/05 04:38:22;;;;;;;;;;;;;;;15.04;73.04;101233.84;1297826;22;625;-75
2022/11/05 04:39:13;;;;;;;;;;;;;;;15.02;73.20;101223.22;1297774;22;645;-75
2022/11/05 04:40:03;;;;;;;;;;;;;;;15.01;73.24;101224.19;1297931;22;660;-75
2022/11/05 04:40:54;;;;;;;;;;;;;;;15.00;73.10;101227.84;1297718;22;613;-75
2022/11/05 04:41:45;;;;;;;;;;;;;;;15.01;73.33;101226.88;1297852;22;657;-75
2022/11/05 04:42:35;;;;;;;;;;;;;;;15.04;73.34;101233.84;1297854;22;813;-75
2022/11/05 04:43:25;;;;;;;;;;;;;;;14.99;73.22;101231.50;1297745;22;614;-75
2022/11/05 04:44:16;;;;;;;;;;;;;;;15.03;73.48;101232.13;1297816;22;715;-74
2022/11/05 04:45:06;;;;;;;;;;;;;;;15.06;73.29;101231.88;1297286;22;628;-75
2022/11/05 04:45:57;;;;;;;;;;;;;;;15.02;73.14;101230.44;1296460;22;673;-75
2022/11/05 04:46:47;;;;;;;;;;;;;;;15.03;72.95;101232.13;1297048;22;633;-74
2022/11/05 04:47:38;;;;;;;;;;;;;;;15.02;73.15;101225.06;1297765;22;593;-75
2022/11/05 04:48:28;;;;;;;;;;;;;;;14.99;73.53;101222.59;1297848;22;610;-75
2022/11/05 04:49:19;;;;;;;;;;;;;;;15.00;73.30;101227.84;1297775;22;625;-75
2022/11/05 04:50:11;;;;;;;;;;;;;;;15.04;73.30;101223.97;1297712;22;684;-75
2022/11/05 04:51:01;;;;;;;;;;;;;;;15.05;73.37;101220.28;1296795;22;1322;-74
2022/11/05 04:51:51;;;;;;;;;;;;;;;15.00;72.90;101219.81;1297611;22;597;-75
2022/11/05 04:52:42;;;;;;;;;;;;;;;15.00;73.43;101224.31;1297834;22;616;-75
2022/11/05 04:53:32;;;;;;;;;;;;;;;15.02;73.37;101219.69;1297827;22;641;-74
2022/11/05 04:54:23;;;;;;;;;;;;;;;15.01;73.55;101215.28;1297747;22;664;-74
2022/11/05 04:55:13;;;;;;;;;;;;;;;14.98;73.02;101218.22;1297654;22;644;-74
2022/11/05 04:56:03;;;;;;;;;;;;;;;15.00;73.53;101218.94;1297763;22;612;-74
2022/11/05 04:56:54;;;;;;;;;;;;;;;15.00;72.94;101216.25;1297730;22;656;-74
2022/11/05 04:57:44;;;;;;;;;;;;;;;15.04;73.27;101220.44;1298096;22;609;-75
2022/11/05 04:58:35;;;;;;;;;;;;;;;15.01;73.53;101216.16;1297754;22;632;-75
2022/11/05 04:59:25;;;;;;;;;;;;;;;15.02;73.27;101217.84;1297909;22;620;-75
2022/11/05 05:00:16;;;;;;;;;;;;;;;15.03;72.93;101216.03;1297625;22;636;-74
2022/11/05 05:01:06;;;;;;;;;;;;;;;15.03;72.82;101221.41;1297820;22;663;-74
2022/11/05 05:01:56;;;;;;;;;;;;;;;15.03;73.06;101221.41;1297640;22;609;-74
2022/11/05 05:02:47;;;;;;;;;;;;;;;15.07;72.70;101230.91;1297905;22;676;-74
2022/11/05 05:03:37;;;;;;;;;;;;;;;15.06;72.79;101223.81;1297094;22;613;-74
2022/11/05 05:04:28;;;;;;;;;;;;;;;15.06;72.59;101226.50;1297761;22;625;-74
2022/11/05 05:05:18;;;;;;;;;;;;;;;15.05;72.33;101219.47;1297857;22;606;-74